HMS Liberty — WDD7435 — position and weather

sailwx.info

Track history (hours):
 
Tides and Currents Weather Stations Pressure Air Temp Water Temp Dewpoint Dewpoint Depression Visibility Wind Speed Wind Dir Waves Ship Positions

HMS Liberty

Owner: Harley Marine Services, Inc., Seattle, WA. More information available from US FCC via Universal Licensing System and Coast Guard Vessel Documentation Center.

Last reported at 2018-Jul-22 17:20 UTC. Time now 2018-Jul-23 00:16 UTC.
Position N 40°38' W 074°12'.

Length 26 m.

Type: Towing. MMSI: 367100050.

Date/timePositionNaut miles runAvg speedWind from/ knotsBaromVisibWave heightAir tempDewpointWater temp
2018-Jul-22 17:20N 40°38' W 074°12'2 5.1
2018-Jul-22 16:59N 40°39' W 074°10'4 7.3
2018-Jul-22 16:30N 40°39' W 074°06'3 5.5
2018-Jul-22 16:01N 40°39' W 074°02'2 1.8
2018-Jul-22 15:00N 40°40' W 074°00'2 4.5
2018-Jul-22 14:30N 40°41' W 074°03'0 0.1
2018-Jul-22 14:00N 40°41' W 074°03'0 0.0
2018-Jul-22 13:30N 40°41' W 074°03'1 2.6
2018-Jul-22 12:58N 40°40' W 074°04'1 1.4
2018-Jul-22 12:29N 40°40' W 074°05'0 0.0
2018-Jul-22 12:00N 40°40' W 074°05'0 0.0
2018-Jul-22 11:30N 40°40' W 074°05'0 0.0
2018-Jul-22 11:00N 40°40' W 074°05'0 0.0
2018-Jul-22 10:30N 40°40' W 074°05'0 0.0
2018-Jul-22 10:00N 40°40' W 074°05'0 0.0
2018-Jul-22 09:30N 40°40' W 074°05'0 0.0
2018-Jul-22 09:00N 40°40' W 074°05'0 0.0
2018-Jul-22 08:30N 40°40' W 074°05'0 0.0
2018-Jul-22 08:00N 40°40' W 074°05'0 0.0
2018-Jul-22 07:30N 40°40' W 074°05'0 0.0
2018-Jul-22 07:00N 40°40' W 074°05'0 0.0
2018-Jul-22 06:30N 40°40' W 074°05'0 0.0
2018-Jul-22 06:00N 40°40' W 074°05'2 4.9
2018-Jul-22 05:30N 40°38' W 074°03'5 8.3
2018-Jul-22 04:57N 40°34' W 074°00'2 0.2
2018-Jul-21 16:21N 40°34' W 073°57'3 5.6
2018-Jul-21 15:53N 40°34' W 074°01'3 8.2
2018-Jul-21 15:30N 40°37' W 074°03'4 7.1
2018-Jul-21 15:00N 40°40' W 074°00'0 0.4
2018-Jul-21 14:30N 40°40' W 074°00'0 0.0
2018-Jul-21 13:30N 40°40' W 074°00'0 0.0
2018-Jul-21 13:00N 40°40' W 074°00'0 0.0
2018-Jul-21 12:30N 40°40' W 074°00'0 0.0
2018-Jul-21 12:00N 40°40' W 074°00'0 0.0
2018-Jul-21 11:30N 40°40' W 074°00'0 0.1
2018-Jul-21 11:00N 40°40' W 074°00'3 5.4
2018-Jul-21 10:30N 40°38' W 074°03'4 7.0
2018-Jul-21 09:55N 40°34' W 074°01'4 7.8
2018-Jul-21 09:27N 40°34' W 073°56'10 2.0
2018-Jul-21 04:38N 40°38' W 073°45'0 0.0
2018-Jul-21 04:30N 40°38' W 073°45'0 0.0
2018-Jul-21 03:47N 40°38' W 073°45'10 0.9
2018-Jul-20 17:29N 40°34' W 073°56'4 5.1
2018-Jul-20 16:47N 40°34' W 074°01'1 4.6
2018-Jul-20 16:30N 40°35' W 074°02'3 5.1
2018-Jul-20 16:00N 40°38' W 074°03'3 5.8
2018-Jul-20 15:30N 40°41' W 074°03'1 1.6
2018-Jul-20 15:00N 40°40' W 074°04'3 4.8
2018-Jul-20 14:29N 40°39' W 074°07'0 0.0
2018-Jul-20 14:00N 40°39' W 074°07'0 0.0
2018-Jul-20 13:30N 40°39' W 074°07'0 0.0
2018-Jul-20 13:00N 40°39' W 074°07'1 1.6
2018-Jul-20 12:30N 40°39' W 074°06'3 5.7
2018-Jul-20 12:00N 40°41' W 074°03'0 0.0
2018-Jul-20 11:30N 40°41' W 074°03'0 0.0
2018-Jul-20 11:00N 40°41' W 074°03'0 0.0
2018-Jul-20 10:30N 40°41' W 074°03'0 0.0
2018-Jul-20 10:00N 40°41' W 074°03'0 0.0
2018-Jul-20 09:30N 40°41' W 074°03'0 0.1
2018-Jul-20 09:00N 40°41' W 074°03'0 0.2
2018-Jul-20 08:30N 40°41' W 074°03'0 0.0
2018-Jul-20 08:00N 40°41' W 074°03'0 0.0
2018-Jul-20 07:30N 40°41' W 074°03'0 0.0
2018-Jul-20 07:00N 40°41' W 074°03'0 0.0
2018-Jul-20 06:30N 40°41' W 074°03'0 0.0
2018-Jul-20 06:00N 40°41' W 074°03'1 1.1
2018-Jul-20 05:30N 40°40' W 074°03'3 5.7
2018-Jul-20 05:00N 40°39' W 074°06'1 1.6
2018-Jul-20 04:30N 40°39' W 074°07'0 0.0
2018-Jul-20 04:00N 40°39' W 074°07'0 0.0
2018-Jul-20 03:30N 40°39' W 074°07'0 0.0
2018-Jul-20 03:00N 40°39' W 074°07'0 0.1
2018-Jul-20 02:30N 40°39' W 074°07'0 0.0
2018-Jul-20 02:00N 40°39' W 074°07'0 0.0
2018-Jul-20 01:30N 40°39' W 074°07'0 0.0
2018-Jul-20 01:00N 40°39' W 074°07'0 0.0
2018-Jul-20 00:30N 40°39' W 074°07'0 0.0
2018-Jul-20 00:00N 40°39' W 074°07'0 0.0
2018-Jul-19 23:30N 40°39' W 074°07'0 0.0
2018-Jul-19 23:00N 40°39' W 074°07'0 0.0
2018-Jul-19 22:30N 40°39' W 074°07'0 0.0
2018-Jul-19 22:00N 40°39' W 074°07'0 0.0
2018-Jul-19 21:30N 40°39' W 074°07'0 0.0
2018-Jul-19 20:58N 40°39' W 074°07'0 0.0
2018-Jul-19 20:30N 40°39' W 074°07'0 0.0
2018-Jul-19 20:00N 40°39' W 074°07'0 0.0
2018-Jul-19 19:30N 40°39' W 074°07'0 0.0
2018-Jul-19 19:00N 40°39' W 074°07'0 0.0
2018-Jul-19 18:30N 40°39' W 074°07'0 0.0
2018-Jul-19 18:00N 40°39' W 074°07'0 0.0
2018-Jul-19 17:30N 40°39' W 074°07'0 0.0
2018-Jul-19 17:00N 40°39' W 074°07'0 0.0
2018-Jul-19 16:30N 40°39' W 074°07'0 0.0
2018-Jul-19 16:00N 40°39' W 074°07'0 0.0
2018-Jul-19 15:30N 40°39' W 074°07'0 0.0
2018-Jul-19 15:00N 40°39' W 074°07'0 0.0
2018-Jul-19 14:30N 40°39' W 074°07'0 0.0
2018-Jul-19 13:30N 40°39' W 074°07'2 3.9
2018-Jul-19 13:00N 40°39' W 074°04'1 2.5
2018-Jul-19 12:30N 40°39' W 074°03'0 0.5
2018-Jul-19 12:00N 40°38' W 074°03'1 1.3
2018-Jul-19 11:30N 40°39' W 074°02'2 4.2
2018-Jul-19 11:00N 40°40' W 074°00'0 0.1
2018-Jul-19 10:30N 40°40' W 074°00'0 0.0
2018-Jul-19 10:00N 40°40' W 074°00'0 0.0
2018-Jul-19 09:30N 40°40' W 074°00'0 0.0
2018-Jul-19 09:00N 40°40' W 074°00'0 0.0
2018-Jul-19 08:30N 40°40' W 074°00'0 0.0
2018-Jul-19 08:00N 40°40' W 074°00'0 0.0
2018-Jul-19 07:30N 40°40' W 074°00'0 0.0
2018-Jul-19 07:00N 40°40' W 074°00'0 0.0
2018-Jul-19 06:30N 40°40' W 074°00'0 0.0
2018-Jul-19 06:00N 40°40' W 074°00'0 0.0
2018-Jul-19 05:30N 40°40' W 074°00'0 0.0
2018-Jul-19 05:00N 40°40' W 074°00'0 0.9
2018-Jul-19 04:30N 40°40' W 074°01'4 7.7
2018-Jul-19 04:00N 40°36' W 074°02'4 7.3
2018-Jul-19 03:29N 40°34' W 073°58'6 0.6
2018-Jul-18 17:10N 40°35' W 073°51'5 5.2
2018-Jul-18 16:13N 40°34' W 073°57'2 4.9
2018-Jul-18 15:47N 40°34' W 073°60'1 3.4
2018-Jul-18 15:30N 40°34' W 074°01'2 3.8
2018-Jul-18 14:59N 40°36' W 074°02'2 4.1
2018-Jul-18 14:30N 40°38' W 074°03'3 2.9
2018-Jul-18 13:30N 40°40' W 074°00'2 3.1
2018-Jul-18 13:00N 40°39' W 074°02'2 4.8
2018-Jul-18 12:30N 40°39' W 074°05'0 0.4
2018-Jul-18 11:59N 40°39' W 074°05'1 2.3
2018-Jul-18 11:30N 40°39' W 074°06'4 0.9
2018-Jul-18 06:51N 40°38' W 074°12'2 6.9
2018-Jul-18 06:30N 40°39' W 074°09'2 3.1
2018-Jul-18 06:00N 40°39' W 074°07'4 1.1
2018-Jul-18 02:37N 40°38' W 074°12'0 0.0
2018-Jul-18 02:29N 40°38' W 074°12'0 0.0
2018-Jul-18 01:40N 40°38' W 074°12'0 0.4
2018-Jul-18 01:23N 40°38' W 074°12'0 0.1
2018-Jul-18 01:00N 40°38' W 074°12'3 5.4
2018-Jul-18 00:30N 40°39' W 074°08'4 7.5
2018-Jul-18 00:00N 40°40' W 074°03'1 3.0
2018-Jul-17 23:30N 40°41' W 074°02'2 3.2
2018-Jul-17 23:00N 40°40' W 074°00'0 0.0
2018-Jul-17 22:30N 40°40' W 074°00'0 0.0
2018-Jul-17 22:00N 40°40' W 074°00'1 1.0
2018-Jul-17 21:30N 40°40' W 074°01'3 6.9
2018-Jul-17 21:00N 40°39' W 074°05'3 5.6
2018-Jul-17 20:30N 40°39' W 074°09'3 6.7
2018-Jul-17 20:01N 40°42' W 074°07'0 0.0
2018-Jul-17 19:30N 40°42' W 074°07'0 0.0
2018-Jul-17 19:00N 40°42' W 074°07'0 0.0
2018-Jul-17 18:30N 40°42' W 074°07'0 0.0
2018-Jul-17 18:00N 40°42' W 074°07'0 0.0
2018-Jul-17 17:30N 40°42' W 074°07'0 0.0
2018-Jul-17 17:00N 40°42' W 074°07'0 0.0
2018-Jul-17 16:30N 40°42' W 074°07'0 0.0
2018-Jul-17 16:00N 40°42' W 074°07'0 0.0
2018-Jul-17 15:30N 40°42' W 074°07'0 0.0
2018-Jul-17 15:00N 40°42' W 074°07'0 0.0
2018-Jul-17 14:30N 40°42' W 074°07'0 0.0
2018-Jul-17 14:00N 40°42' W 074°07'0 0.0
2018-Jul-17 13:30N 40°42' W 074°07'0 0.0
2018-Jul-17 13:00N 40°42' W 074°07'0 0.0
2018-Jul-17 12:30N 40°42' W 074°07'0 0.0
2018-Jul-17 12:00N 40°42' W 074°07'0 0.0
2018-Jul-17 11:30N 40°42' W 074°07'1 1.8
2018-Jul-17 11:00N 40°41' W 074°07'3 5.4
2018-Jul-17 10:27N 40°39' W 074°09'2 5.5
2018-Jul-17 10:00N 40°39' W 074°06'3 6.3
2018-Jul-17 09:30N 40°39' W 074°02'1 2.8
2018-Jul-17 09:00N 40°40' W 074°00'0 0.0
2018-Jul-17 08:30N 40°40' W 074°00'0 0.0
2018-Jul-17 08:00N 40°40' W 074°00'0 0.0
2018-Jul-17 07:30N 40°40' W 074°00'0 0.0
2018-Jul-17 07:00N 40°40' W 074°00'0 0.0
2018-Jul-17 06:30N 40°40' W 074°00'0 0.0
2018-Jul-17 06:00N 40°40' W 074°00'0 0.0
2018-Jul-17 05:30N 40°40' W 074°00'0 0.0
2018-Jul-17 05:00N 40°40' W 074°00'0 0.0
2018-Jul-17 04:30N 40°40' W 074°00'0 0.0
2018-Jul-17 04:00N 40°40' W 074°00'0 0.0
2018-Jul-17 03:30N 40°40' W 074°00'0 0.0
2018-Jul-17 03:00N 40°40' W 074°00'0 0.0
2018-Jul-17 02:30N 40°40' W 074°00'0 0.0
2018-Jul-17 02:00N 40°40' W 074°00'0 0.0
2018-Jul-17 01:30N 40°40' W 074°00'0 0.0
2018-Jul-17 01:00N 40°40' W 074°00'0 0.0
2018-Jul-17 00:30N 40°40' W 074°00'0 0.0
2018-Jul-16 23:30N 40°40' W 074°00'0 0.0
2018-Jul-16 23:00N 40°40' W 074°00'0 0.1
2018-Jul-16 22:30N 40°40' W 074°00'1 2.7
2018-Jul-16 22:00N 40°39' W 074°02'3 5.7
2018-Jul-16 21:30N 40°39' W 074°05'4 6.9
2018-Jul-16 21:00N 40°39' W 074°10'7 0.9
2018-Jul-16 12:54N 40°32' W 074°15'0 0.0
2018-Jul-16 12:30N 40°32' W 074°15'0 0.0
2018-Jul-16 12:00N 40°32' W 074°15'0 0.0
2018-Jul-16 11:23N 40°32' W 074°15'0 0.0
2018-Jul-16 03:56N 40°32' W 074°15'0 0.0
2018-Jul-16 03:30N 40°32' W 074°15'0 0.0
2018-Jul-16 02:58N 40°32' W 074°15'0 0.0
2018-Jul-16 02:07N 40°32' W 074°15'6 0.5
2018-Jul-15 13:25N 40°38' W 074°12'3 7.2
2018-Jul-15 12:59N 40°39' W 074°08'4 8.3
2018-Jul-15 12:30N 40°40' W 074°03'1 2.0
2018-Jul-15 12:00N 40°41' W 074°03'0 0.2
2018-Jul-15 11:30N 40°41' W 074°03'0 0.2
2018-Jul-15 11:00N 40°41' W 074°03'0 0.1
2018-Jul-15 10:30N 40°41' W 074°03'3 5.7
2018-Jul-15 10:00N 40°39' W 074°06'2 4.8
2018-Jul-15 09:30N 40°40' W 074°09'3 5.5
2018-Jul-15 09:00N 40°42' W 074°07'0 0.0
2018-Jul-15 08:30N 40°42' W 074°07'0 0.0
2018-Jul-15 08:00N 40°42' W 074°07'0 0.0
2018-Jul-15 07:30N 40°42' W 074°07'0 0.0
2018-Jul-15 07:00N 40°42' W 074°07'0 0.0
2018-Jul-15 06:30N 40°42' W 074°07'0 0.0
2018-Jul-15 06:00N 40°42' W 074°07'0 0.0
2018-Jul-15 05:30N 40°42' W 074°07'0 0.0
2018-Jul-15 04:59N 40°42' W 074°07'0 0.0
2018-Jul-15 04:30N 40°42' W 074°07'0 0.0
2018-Jul-15 04:00N 40°42' W 074°07'0 0.0
2018-Jul-15 03:30N 40°42' W 074°07'0 0.0
2018-Jul-15 03:00N 40°42' W 074°07'0 0.0
2018-Jul-15 02:30N 40°42' W 074°07'0 0.0
2018-Jul-15 02:00N 40°42' W 074°07'0 0.0
2018-Jul-15 01:30N 40°42' W 074°07'0 0.0
2018-Jul-15 01:00N 40°42' W 074°07'0 0.0
2018-Jul-15 00:30N 40°42' W 074°07'0 0.0
2018-Jul-15 00:00N 40°42' W 074°07'0 0.0
2018-Jul-14 23:30N 40°42' W 074°07'0 0.0
2018-Jul-14 23:00N 40°42' W 074°07'0 0.0
2018-Jul-14 22:30N 40°42' W 074°07'0 0.0
2018-Jul-14 22:00N 40°42' W 074°07'0 0.0
2018-Jul-14 21:30N 40°42' W 074°07'0 0.0
2018-Jul-14 21:00N 40°42' W 074°07'0 0.0
2018-Jul-14 20:30N 40°42' W 074°07'0 0.0
2018-Jul-14 20:00N 40°42' W 074°07'0 0.0
2018-Jul-14 19:30N 40°42' W 074°07'0 0.0
2018-Jul-14 19:00N 40°42' W 074°07'0 0.0
2018-Jul-14 18:30N 40°42' W 074°07'0 0.0
2018-Jul-14 18:00N 40°42' W 074°07'0 0.0
2018-Jul-14 17:30N 40°42' W 074°07'0 0.0
2018-Jul-14 17:00N 40°42' W 074°07'0 0.0
2018-Jul-14 16:30N 40°42' W 074°07'0 0.0
2018-Jul-14 16:00N 40°42' W 074°07'0 0.0
2018-Jul-14 15:30N 40°42' W 074°07'0 0.0
2018-Jul-14 15:00N 40°42' W 074°07'0 0.0
2018-Jul-14 14:30N 40°42' W 074°07'0 0.0
2018-Jul-14 13:30N 40°42' W 074°07'0 0.0
2018-Jul-14 13:00N 40°42' W 074°07'0 0.0
2018-Jul-14 12:30N 40°42' W 074°07'0 0.0
2018-Jul-14 12:00N 40°42' W 074°07'0 0.0
2018-Jul-14 11:30N 40°42' W 074°07'0 0.0
2018-Jul-14 11:00N 40°42' W 074°07'0 0.0
2018-Jul-14 10:30N 40°42' W 074°07'0 0.0
2018-Jul-14 10:00N 40°42' W 074°07'0 0.0
2018-Jul-14 09:30N 40°42' W 074°07'0 0.0
2018-Jul-14 09:00N 40°42' W 074°07'0 0.0
2018-Jul-14 08:30N 40°42' W 074°07'0 0.0
2018-Jul-14 08:00N 40°42' W 074°07'0 0.0
2018-Jul-14 07:30N 40°42' W 074°07'0 0.0
2018-Jul-14 07:00N 40°42' W 074°07'1 2.4
2018-Jul-14 06:30N 40°41' W 074°08'3 5.7
2018-Jul-14 06:00N 40°39' W 074°10'3 5.4
2018-Jul-14 05:30N 40°37' W 074°12'3 5.5
2018-Jul-14 04:59N 40°34' W 074°13'2 4.9
2018-Jul-14 04:29N 40°32' W 074°15'0 0.0
2018-Jul-13 12:54N 40°32' W 074°15'1 2.1
2018-Jul-13 12:20N 40°33' W 074°14'2 6.2
2018-Jul-13 11:57N 40°35' W 074°12'3 6.9
2018-Jul-13 11:30N 40°38' W 074°12'4 8.0
2018-Jul-13 11:00N 40°39' W 074°06'3 5.2
2018-Jul-13 10:30N 40°38' W 074°04'4 7.5
2018-Jul-13 10:00N 40°34' W 074°01'3 6.7
2018-Jul-13 09:30N 40°34' W 073°57'2 4.9
2018-Jul-13 09:00N 40°34' W 073°54'2 4.9
2018-Jul-13 08:30N 40°35' W 073°50'2 4.4
2018-Jul-13 08:01N 40°36' W 073°48'3 6.0
2018-Jul-13 07:31N 40°38' W 073°45'0 0.1
2018-Jul-13 07:01N 40°38' W 073°45'0 0.0
2018-Jul-13 06:31N 40°38' W 073°45'0 0.0
2018-Jul-13 06:01N 40°38' W 073°45'0 0.0
2018-Jul-13 05:31N 40°38' W 073°45'0 0.0
2018-Jul-13 05:01N 40°38' W 073°45'0 0.0
2018-Jul-13 04:30N 40°38' W 073°45'0 0.0
2018-Jul-13 04:00N 40°38' W 073°45'0 0.0
2018-Jul-13 03:30N 40°38' W 073°45'0 0.0
2018-Jul-13 02:54N 40°38' W 073°45'0 0.0
2018-Jul-13 02:30N 40°38' W 073°45'  
Track history (hours):
 
Tides and Currents Weather Stations Pressure Air Temp Water Temp Dewpoint Dewpoint Depression Visibility Wind Speed Wind Dir Waves Ship Positions

HMS Liberty

Owner: Harley Marine Services, Inc., Seattle, WA. More information available from US FCC via Universal Licensing System and Coast Guard Vessel Documentation Center.

Last reported at 2018-Jul-22 17:20 UTC. Time now 2018-Jul-23 00:16 UTC.
Position N 40°38' W 074°12'.

Length 26 m.

Type: Towing. MMSI: 367100050.

Date/timePositionNaut miles runAvg speedWind from/ knotsBaromVisibWave heightAir tempDewpointWater temp
2018-Jul-22 17:20N 40°38' W 074°12'2 5.1
2018-Jul-22 16:59N 40°39' W 074°10'4 7.3
2018-Jul-22 16:30N 40°39' W 074°06'3 5.5
2018-Jul-22 16:01N 40°39' W 074°02'2 1.8
2018-Jul-22 15:00N 40°40' W 074°00'2 4.5
2018-Jul-22 14:30N 40°41' W 074°03'0 0.1
2018-Jul-22 14:00N 40°41' W 074°03'0 0.0
2018-Jul-22 13:30N 40°41' W 074°03'1 2.6
2018-Jul-22 12:58N 40°40' W 074°04'1 1.4
2018-Jul-22 12:29N 40°40' W 074°05'0 0.0
2018-Jul-22 12:00N 40°40' W 074°05'0 0.0
2018-Jul-22 11:30N 40°40' W 074°05'0 0.0
2018-Jul-22 11:00N 40°40' W 074°05'0 0.0
2018-Jul-22 10:30N 40°40' W 074°05'0 0.0
2018-Jul-22 10:00N 40°40' W 074°05'0 0.0
2018-Jul-22 09:30N 40°40' W 074°05'0 0.0
2018-Jul-22 09:00N 40°40' W 074°05'0 0.0
2018-Jul-22 08:30N 40°40' W 074°05'0 0.0
2018-Jul-22 08:00N 40°40' W 074°05'0 0.0
2018-Jul-22 07:30N 40°40' W 074°05'0 0.0
2018-Jul-22 07:00N 40°40' W 074°05'0 0.0
2018-Jul-22 06:30N 40°40' W 074°05'0 0.0
2018-Jul-22 06:00N 40°40' W 074°05'2 4.9
2018-Jul-22 05:30N 40°38' W 074°03'5 8.3
2018-Jul-22 04:57N 40°34' W 074°00'2 0.2
2018-Jul-21 16:21N 40°34' W 073°57'3 5.6
2018-Jul-21 15:53N 40°34' W 074°01'3 8.2
2018-Jul-21 15:30N 40°37' W 074°03'4 7.1
2018-Jul-21 15:00N 40°40' W 074°00'0 0.4
2018-Jul-21 14:30N 40°40' W 074°00'0 0.0
2018-Jul-21 13:30N 40°40' W 074°00'0 0.0
2018-Jul-21 13:00N 40°40' W 074°00'0 0.0
2018-Jul-21 12:30N 40°40' W 074°00'0 0.0
2018-Jul-21 12:00N 40°40' W 074°00'0 0.0
2018-Jul-21 11:30N 40°40' W 074°00'0 0.1
2018-Jul-21 11:00N 40°40' W 074°00'3 5.4
2018-Jul-21 10:30N 40°38' W 074°03'4 7.0
2018-Jul-21 09:55N 40°34' W 074°01'4 7.8
2018-Jul-21 09:27N 40°34' W 073°56'10 2.0
2018-Jul-21 04:38N 40°38' W 073°45'0 0.0
2018-Jul-21 04:30N 40°38' W 073°45'0 0.0
2018-Jul-21 03:47N 40°38' W 073°45'10 0.9
2018-Jul-20 17:29N 40°34' W 073°56'4 5.1
2018-Jul-20 16:47N 40°34' W 074°01'1 4.6
2018-Jul-20 16:30N 40°35' W 074°02'3 5.1
2018-Jul-20 16:00N 40°38' W 074°03'3 5.8
2018-Jul-20 15:30N 40°41' W 074°03'1 1.6
2018-Jul-20 15:00N 40°40' W 074°04'3 4.8
2018-Jul-20 14:29N 40°39' W 074°07'0 0.0
2018-Jul-20 14:00N 40°39' W 074°07'0 0.0
2018-Jul-20 13:30N 40°39' W 074°07'0 0.0
2018-Jul-20 13:00N 40°39' W 074°07'1 1.6
2018-Jul-20 12:30N 40°39' W 074°06'3 5.7
2018-Jul-20 12:00N 40°41' W 074°03'0 0.0
2018-Jul-20 11:30N 40°41' W 074°03'0 0.0
2018-Jul-20 11:00N 40°41' W 074°03'0 0.0
2018-Jul-20 10:30N 40°41' W 074°03'0 0.0
2018-Jul-20 10:00N 40°41' W 074°03'0 0.0
2018-Jul-20 09:30N 40°41' W 074°03'0 0.1
2018-Jul-20 09:00N 40°41' W 074°03'0 0.2
2018-Jul-20 08:30N 40°41' W 074°03'0 0.0
2018-Jul-20 08:00N 40°41' W 074°03'0 0.0
2018-Jul-20 07:30N 40°41' W 074°03'0 0.0
2018-Jul-20 07:00N 40°41' W 074°03'0 0.0
2018-Jul-20 06:30N 40°41' W 074°03'0 0.0
2018-Jul-20 06:00N 40°41' W 074°03'1 1.1
2018-Jul-20 05:30N 40°40' W 074°03'3 5.7
2018-Jul-20 05:00N 40°39' W 074°06'1 1.6
2018-Jul-20 04:30N 40°39' W 074°07'0 0.0
2018-Jul-20 04:00N 40°39' W 074°07'0 0.0
2018-Jul-20 03:30N 40°39' W 074°07'0 0.0
2018-Jul-20 03:00N 40°39' W 074°07'0 0.1
2018-Jul-20 02:30N 40°39' W 074°07'0 0.0
2018-Jul-20 02:00N 40°39' W 074°07'0 0.0
2018-Jul-20 01:30N 40°39' W 074°07'0 0.0
2018-Jul-20 01:00N 40°39' W 074°07'0 0.0
2018-Jul-20 00:30N 40°39' W 074°07'0 0.0
2018-Jul-20 00:00N 40°39' W 074°07'0 0.0
2018-Jul-19 23:30N 40°39' W 074°07'0 0.0
2018-Jul-19 23:00N 40°39' W 074°07'0 0.0
2018-Jul-19 22:30N 40°39' W 074°07'0 0.0
2018-Jul-19 22:00N 40°39' W 074°07'0 0.0
2018-Jul-19 21:30N 40°39' W 074°07'0 0.0
2018-Jul-19 20:58N 40°39' W 074°07'0 0.0
2018-Jul-19 20:30N 40°39' W 074°07'0 0.0
2018-Jul-19 20:00N 40°39' W 074°07'0 0.0
2018-Jul-19 19:30N 40°39' W 074°07'0 0.0
2018-Jul-19 19:00N 40°39' W 074°07'0 0.0
2018-Jul-19 18:30N 40°39' W 074°07'0 0.0
2018-Jul-19 18:00N 40°39' W 074°07'0 0.0
2018-Jul-19 17:30N 40°39' W 074°07'0 0.0
2018-Jul-19 17:00N 40°39' W 074°07'0 0.0
2018-Jul-19 16:30N 40°39' W 074°07'0 0.0
2018-Jul-19 16:00N 40°39' W 074°07'0 0.0
2018-Jul-19 15:30N 40°39' W 074°07'0 0.0
2018-Jul-19 15:00N 40°39' W 074°07'0 0.0
2018-Jul-19 14:30N 40°39' W 074°07'0 0.0
2018-Jul-19 13:30N 40°39' W 074°07'2 3.9
2018-Jul-19 13:00N 40°39' W 074°04'1 2.5
2018-Jul-19 12:30N 40°39' W 074°03'0 0.5
2018-Jul-19 12:00N 40°38' W 074°03'1 1.3
2018-Jul-19 11:30N 40°39' W 074°02'2 4.2
2018-Jul-19 11:00N 40°40' W 074°00'0 0.1
2018-Jul-19 10:30N 40°40' W 074°00'0 0.0
2018-Jul-19 10:00N 40°40' W 074°00'0 0.0
2018-Jul-19 09:30N 40°40' W 074°00'0 0.0
2018-Jul-19 09:00N 40°40' W 074°00'0 0.0
2018-Jul-19 08:30N 40°40' W 074°00'0 0.0
2018-Jul-19 08:00N 40°40' W 074°00'0 0.0
2018-Jul-19 07:30N 40°40' W 074°00'0 0.0
2018-Jul-19 07:00N 40°40' W 074°00'0 0.0
2018-Jul-19 06:30N 40°40' W 074°00'0 0.0
2018-Jul-19 06:00N 40°40' W 074°00'0 0.0
2018-Jul-19 05:30N 40°40' W 074°00'0 0.0
2018-Jul-19 05:00N 40°40' W 074°00'0 0.9
2018-Jul-19 04:30N 40°40' W 074°01'4 7.7
2018-Jul-19 04:00N 40°36' W 074°02'4 7.3
2018-Jul-19 03:29N 40°34' W 073°58'6 0.6
2018-Jul-18 17:10N 40°35' W 073°51'5 5.2
2018-Jul-18 16:13N 40°34' W 073°57'2 4.9
2018-Jul-18 15:47N 40°34' W 073°60'1 3.4
2018-Jul-18 15:30N 40°34' W 074°01'2 3.8
2018-Jul-18 14:59N 40°36' W 074°02'2 4.1
2018-Jul-18 14:30N 40°38' W 074°03'3 2.9
2018-Jul-18 13:30N 40°40' W 074°00'2 3.1
2018-Jul-18 13:00N 40°39' W 074°02'2 4.8
2018-Jul-18 12:30N 40°39' W 074°05'0 0.4
2018-Jul-18 11:59N 40°39' W 074°05'1 2.3
2018-Jul-18 11:30N 40°39' W 074°06'4 0.9
2018-Jul-18 06:51N 40°38' W 074°12'2 6.9
2018-Jul-18 06:30N 40°39' W 074°09'2 3.1
2018-Jul-18 06:00N 40°39' W 074°07'4 1.1
2018-Jul-18 02:37N 40°38' W 074°12'0 0.0
2018-Jul-18 02:29N 40°38' W 074°12'0 0.0
2018-Jul-18 01:40N 40°38' W 074°12'0 0.4
2018-Jul-18 01:23N 40°38' W 074°12'0 0.1
2018-Jul-18 01:00N 40°38' W 074°12'3 5.4
2018-Jul-18 00:30N 40°39' W 074°08'4 7.5
2018-Jul-18 00:00N 40°40' W 074°03'1 3.0
2018-Jul-17 23:30N 40°41' W 074°02'2 3.2
2018-Jul-17 23:00N 40°40' W 074°00'0 0.0
2018-Jul-17 22:30N 40°40' W 074°00'0 0.0
2018-Jul-17 22:00N 40°40' W 074°00'1 1.0
2018-Jul-17 21:30N 40°40' W 074°01'3 6.9
2018-Jul-17 21:00N 40°39' W 074°05'3 5.6
2018-Jul-17 20:30N 40°39' W 074°09'3 6.7
2018-Jul-17 20:01N 40°42' W 074°07'0 0.0
2018-Jul-17 19:30N 40°42' W 074°07'0 0.0
2018-Jul-17 19:00N 40°42' W 074°07'0 0.0
2018-Jul-17 18:30N 40°42' W 074°07'0 0.0
2018-Jul-17 18:00N 40°42' W 074°07'0 0.0
2018-Jul-17 17:30N 40°42' W 074°07'0 0.0
2018-Jul-17 17:00N 40°42' W 074°07'0 0.0
2018-Jul-17 16:30N 40°42' W 074°07'0 0.0
2018-Jul-17 16:00N 40°42' W 074°07'0 0.0
2018-Jul-17 15:30N 40°42' W 074°07'0 0.0
2018-Jul-17 15:00N 40°42' W 074°07'0 0.0
2018-Jul-17 14:30N 40°42' W 074°07'0 0.0
2018-Jul-17 14:00N 40°42' W 074°07'0 0.0
2018-Jul-17 13:30N 40°42' W 074°07'0 0.0
2018-Jul-17 13:00N 40°42' W 074°07'0 0.0
2018-Jul-17 12:30N 40°42' W 074°07'0 0.0
2018-Jul-17 12:00N 40°42' W 074°07'0 0.0
2018-Jul-17 11:30N 40°42' W 074°07'1 1.8
2018-Jul-17 11:00N 40°41' W 074°07'3 5.4
2018-Jul-17 10:27N 40°39' W 074°09'2 5.5
2018-Jul-17 10:00N 40°39' W 074°06'3 6.3
2018-Jul-17 09:30N 40°39' W 074°02'1 2.8
2018-Jul-17 09:00N 40°40' W 074°00'0 0.0
2018-Jul-17 08:30N 40°40' W 074°00'0 0.0
2018-Jul-17 08:00N 40°40' W 074°00'0 0.0
2018-Jul-17 07:30N 40°40' W 074°00'0 0.0
2018-Jul-17 07:00N 40°40' W 074°00'0 0.0
2018-Jul-17 06:30N 40°40' W 074°00'0 0.0
2018-Jul-17 06:00N 40°40' W 074°00'0 0.0
2018-Jul-17 05:30N 40°40' W 074°00'0 0.0
2018-Jul-17 05:00N 40°40' W 074°00'0 0.0
2018-Jul-17 04:30N 40°40' W 074°00'0 0.0
2018-Jul-17 04:00N 40°40' W 074°00'0 0.0
2018-Jul-17 03:30N 40°40' W 074°00'0 0.0
2018-Jul-17 03:00N 40°40' W 074°00'0 0.0
2018-Jul-17 02:30N 40°40' W 074°00'0 0.0
2018-Jul-17 02:00N 40°40' W 074°00'0 0.0
2018-Jul-17 01:30N 40°40' W 074°00'0 0.0
2018-Jul-17 01:00N 40°40' W 074°00'0 0.0
2018-Jul-17 00:30N 40°40' W 074°00'0 0.0
2018-Jul-16 23:30N 40°40' W 074°00'0 0.0
2018-Jul-16 23:00N 40°40' W 074°00'0 0.1
2018-Jul-16 22:30N 40°40' W 074°00'1 2.7
2018-Jul-16 22:00N 40°39' W 074°02'3 5.7
2018-Jul-16 21:30N 40°39' W 074°05'4 6.9
2018-Jul-16 21:00N 40°39' W 074°10'7 0.9
2018-Jul-16 12:54N 40°32' W 074°15'0 0.0
2018-Jul-16 12:30N 40°32' W 074°15'0 0.0
2018-Jul-16 12:00N 40°32' W 074°15'0 0.0
2018-Jul-16 11:23N 40°32' W 074°15'0 0.0
2018-Jul-16 03:56N 40°32' W 074°15'0 0.0
2018-Jul-16 03:30N 40°32' W 074°15'0 0.0
2018-Jul-16 02:58N 40°32' W 074°15'0 0.0
2018-Jul-16 02:07N 40°32' W 074°15'6 0.5
2018-Jul-15 13:25N 40°38' W 074°12'3 7.2
2018-Jul-15 12:59N 40°39' W 074°08'4 8.3
2018-Jul-15 12:30N 40°40' W 074°03'1 2.0
2018-Jul-15 12:00N 40°41' W 074°03'0 0.2
2018-Jul-15 11:30N 40°41' W 074°03'0 0.2
2018-Jul-15 11:00N 40°41' W 074°03'0 0.1
2018-Jul-15 10:30N 40°41' W 074°03'3 5.7
2018-Jul-15 10:00N 40°39' W 074°06'2 4.8
2018-Jul-15 09:30N 40°40' W 074°09'3 5.5
2018-Jul-15 09:00N 40°42' W 074°07'0 0.0
2018-Jul-15 08:30N 40°42' W 074°07'0 0.0
2018-Jul-15 08:00N 40°42' W 074°07'0 0.0
2018-Jul-15 07:30N 40°42' W 074°07'0 0.0
2018-Jul-15 07:00N 40°42' W 074°07'0 0.0
2018-Jul-15 06:30N 40°42' W 074°07'0 0.0
2018-Jul-15 06:00N 40°42' W 074°07'0 0.0
2018-Jul-15 05:30N 40°42' W 074°07'0 0.0
2018-Jul-15 04:59N 40°42' W 074°07'0 0.0
2018-Jul-15 04:30N 40°42' W 074°07'0 0.0
2018-Jul-15 04:00N 40°42' W 074°07'0 0.0
2018-Jul-15 03:30N 40°42' W 074°07'0 0.0
2018-Jul-15 03:00N 40°42' W 074°07'0 0.0
2018-Jul-15 02:30N 40°42' W 074°07'0 0.0
2018-Jul-15 02:00N 40°42' W 074°07'0 0.0
2018-Jul-15 01:30N 40°42' W 074°07'0 0.0
2018-Jul-15 01:00N 40°42' W 074°07'0 0.0
2018-Jul-15 00:30N 40°42' W 074°07'0 0.0
2018-Jul-15 00:00N 40°42' W 074°07'0 0.0
2018-Jul-14 23:30N 40°42' W 074°07'0 0.0
2018-Jul-14 23:00N 40°42' W 074°07'0 0.0
2018-Jul-14 22:30N 40°42' W 074°07'0 0.0
2018-Jul-14 22:00N 40°42' W 074°07'0 0.0
2018-Jul-14 21:30N 40°42' W 074°07'0 0.0
2018-Jul-14 21:00N 40°42' W 074°07'0 0.0
2018-Jul-14 20:30N 40°42' W 074°07'0 0.0
2018-Jul-14 20:00N 40°42' W 074°07'0 0.0
2018-Jul-14 19:30N 40°42' W 074°07'0 0.0
2018-Jul-14 19:00N 40°42' W 074°07'0 0.0
2018-Jul-14 18:30N 40°42' W 074°07'0 0.0
2018-Jul-14 18:00N 40°42' W 074°07'0 0.0
2018-Jul-14 17:30N 40°42' W 074°07'0 0.0
2018-Jul-14 17:00N 40°42' W 074°07'0 0.0
2018-Jul-14 16:30N 40°42' W 074°07'0 0.0
2018-Jul-14 16:00N 40°42' W 074°07'0 0.0
2018-Jul-14 15:30N 40°42' W 074°07'0 0.0
2018-Jul-14 15:00N 40°42' W 074°07'0 0.0
2018-Jul-14 14:30N 40°42' W 074°07'0 0.0
2018-Jul-14 13:30N 40°42' W 074°07'0 0.0
2018-Jul-14 13:00N 40°42' W 074°07'0 0.0
2018-Jul-14 12:30N 40°42' W 074°07'0 0.0
2018-Jul-14 12:00N 40°42' W 074°07'0 0.0
2018-Jul-14 11:30N 40°42' W 074°07'0 0.0
2018-Jul-14 11:00N 40°42' W 074°07'0 0.0
2018-Jul-14 10:30N 40°42' W 074°07'0 0.0
2018-Jul-14 10:00N 40°42' W 074°07'0 0.0
2018-Jul-14 09:30N 40°42' W 074°07'0 0.0
2018-Jul-14 09:00N 40°42' W 074°07'0 0.0
2018-Jul-14 08:30N 40°42' W 074°07'0 0.0
2018-Jul-14 08:00N 40°42' W 074°07'0 0.0
2018-Jul-14 07:30N 40°42' W 074°07'0 0.0
2018-Jul-14 07:00N 40°42' W 074°07'1 2.4
2018-Jul-14 06:30N 40°41' W 074°08'3 5.7
2018-Jul-14 06:00N 40°39' W 074°10'3 5.4
2018-Jul-14 05:30N 40°37' W 074°12'3 5.5
2018-Jul-14 04:59N 40°34' W 074°13'2 4.9
2018-Jul-14 04:29N 40°32' W 074°15'0 0.0
2018-Jul-13 12:54N 40°32' W 074°15'1 2.1
2018-Jul-13 12:20N 40°33' W 074°14'2 6.2
2018-Jul-13 11:57N 40°35' W 074°12'3 6.9
2018-Jul-13 11:30N 40°38' W 074°12'4 8.0
2018-Jul-13 11:00N 40°39' W 074°06'3 5.2
2018-Jul-13 10:30N 40°38' W 074°04'4 7.5
2018-Jul-13 10:00N 40°34' W 074°01'3 6.7
2018-Jul-13 09:30N 40°34' W 073°57'2 4.9
2018-Jul-13 09:00N 40°34' W 073°54'2 4.9
2018-Jul-13 08:30N 40°35' W 073°50'2 4.4
2018-Jul-13 08:01N 40°36' W 073°48'3 6.0
2018-Jul-13 07:31N 40°38' W 073°45'0 0.1
2018-Jul-13 07:01N 40°38' W 073°45'0 0.0
2018-Jul-13 06:31N 40°38' W 073°45'0 0.0
2018-Jul-13 06:01N 40°38' W 073°45'0 0.0
2018-Jul-13 05:31N 40°38' W 073°45'0 0.0
2018-Jul-13 05:01N 40°38' W 073°45'0 0.0
2018-Jul-13 04:30N 40°38' W 073°45'0 0.0
2018-Jul-13 04:00N 40°38' W 073°45'0 0.0
2018-Jul-13 03:30N 40°38' W 073°45'0 0.0
2018-Jul-13 02:54N 40°38' W 073°45'0 0.0
2018-Jul-13 02:30N 40°38' W 073°45'  

Dump ship's entire track history